sensor_id;sensor_type;location;lat;lon;timestamp;pressure;altitude;pressure_sealevel;temperature;humidity
43770;BME280;6597;52.218;9.882;2024-01-25T00:01:35;101417.84;;;7.84;85.09
43770;BME280;6597;52.218;9.882;2024-01-25T00:04:01;101416.09;;;7.84;85.57
43770;BME280;6597;52.218;9.882;2024-01-25T00:06:29;101417.88;;;7.82;84.98
43770;BME280;6597;52.218;9.882;2024-01-25T00:08:56;101410.06;;;7.77;85.64
43770;BME280;6597;52.218;9.882;2024-01-25T00:11:22;101413.59;;;7.75;86.21
43770;BME280;6597;52.218;9.882;2024-01-25T00:13:49;101413.56;;;7.78;85.40
43770;BME280;6597;52.218;9.882;2024-01-25T00:16:15;101403.97;;;7.78;85.42
43770;BME280;6597;52.218;9.882;2024-01-25T00:18:42;101414.41;;;7.80;85.10
43770;BME280;6597;52.218;9.882;2024-01-25T00:21:09;101406.56;;;7.78;85.96
43770;BME280;6597;52.218;9.882;2024-01-25T00:23:37;101412.69;;;7.77;85.52
43770;BME280;6597;52.218;9.882;2024-01-25T00:26:03;101417.91;;;7.79;85.60
43770;BME280;6597;52.218;9.882;2024-01-25T00:28:30;101417.91;;;7.79;85.92
43770;BME280;6597;52.218;9.882;2024-01-25T00:30:58;101423.97;;;7.79;86.04
43770;BME280;6597;52.218;9.882;2024-01-25T00:33:25;101412.69;;;7.77;86.12
43770;BME280;6597;52.218;9.882;2024-01-25T00:35:52;101415.34;;;7.74;85.98
43770;BME280;6597;52.218;9.882;2024-01-25T00:38:19;101425.78;;;7.74;86.48
43770;BME280;6597;52.218;9.882;2024-01-25T00:40:47;101426.72;;;7.70;86.10
43770;BME280;6597;52.218;9.882;2024-01-25T00:43:14;101421.50;;;7.69;86.08
43770;BME280;6597;52.218;9.882;2024-01-25T00:45:41;101430.19;;;7.71;85.48
43770;BME280;6597;52.218;9.882;2024-01-25T00:48:09;101427.56;;;7.72;85.83
43770;BME280;6597;52.218;9.882;2024-01-25T00:50:37;101428.44;;;7.71;86.12
43770;BME280;6597;52.218;9.882;2024-01-25T00:53:05;101442.44;;;7.69;85.74
43770;BME280;6597;52.218;9.882;2024-01-25T00:55:32;101439.84;;;7.67;85.93
43770;BME280;6597;52.218;9.882;2024-01-25T00:58:00;101447.69;;;7.66;85.79
43770;BME280;6597;52.218;9.882;2024-01-25T01:00:27;101452.94;;;7.63;86.60
43770;BME280;6597;52.218;9.882;2024-01-25T01:02:57;101461.69;;;7.62;86.33
43770;BME280;6597;52.218;9.882;2024-01-25T01:05:25;101465.16;;;7.62;86.39
43770;BME280;6597;52.218;9.882;2024-01-25T01:07:52;101457.28;;;7.65;85.64
43770;BME280;6597;52.218;9.882;2024-01-25T01:10:19;101463.41;;;7.63;85.54
43770;BME280;6597;52.218;9.882;2024-01-25T01:12:45;101464.25;;;7.65;85.24
43770;BME280;6597;52.218;9.882;2024-01-25T01:15:13;101462.47;;;7.68;84.84
43770;BME280;6597;52.218;9.882;2024-01-25T01:17:40;101459.88;;;7.67;84.39
43770;BME280;6597;52.218;9.882;2024-01-25T01:20:07;101453.75;;;7.69;85.49
43770;BME280;6597;52.218;9.882;2024-01-25T01:22:34;101434.59;;;7.67;84.71
43770;BME280;6597;52.218;9.882;2024-01-25T01:25:00;101446.81;;;7.65;85.23
43770;BME280;6597;52.218;9.882;2024-01-25T01:27:27;101442.59;;;7.57;86.08
43770;BME280;6597;52.218;9.882;2024-01-25T01:29:53;101445.19;;;7.58;85.69
43770;BME280;6597;52.218;9.882;2024-01-25T01:32:21;101438.25;;;7.54;85.96
43770;BME280;6597;52.218;9.882;2024-01-25T01:34:48;101449.63;;;7.50;86.54
43770;BME280;6597;52.218;9.882;2024-01-25T01:37:14;101456.59;;;7.46;86.38
43770;BME280;6597;52.218;9.882;2024-01-25T01:39:41;101454.00;;;7.46;87.40
43770;BME280;6597;52.218;9.882;2024-01-25T01:42:08;101466.19;;;7.47;87.62
43770;BME280;6597;52.218;9.882;2024-01-25T01:44:34;101467.91;;;7.47;86.69
43770;BME280;6597;52.218;9.882;2024-01-25T01:47:01;101463.53;;;7.52;86.40
43770;BME280;6597;52.218;9.882;2024-01-25T01:49:29;101465.31;;;7.50;86.30
43770;BME280;6597;52.218;9.882;2024-01-25T01:51:55;101474.00;;;7.51;85.99
43770;BME280;6597;52.218;9.882;2024-01-25T01:54:22;101474.91;;;7.48;86.62
43770;BME280;6597;52.218;9.882;2024-01-25T01:56:49;101471.41;;;7.49;86.34
43770;BME280;6597;52.218;9.882;2024-01-25T01:59:16;101472.31;;;7.45;86.30
43770;BME280;6597;52.218;9.882;2024-01-25T02:01:43;101476.69;;;7.43;86.46
43770;BME280;6597;52.218;9.882;2024-01-25T02:04:10;101488.88;;;7.41;86.71
43770;BME280;6597;52.218;9.882;2024-01-25T02:06:38;101488.03;;;7.39;87.25
43770;BME280;6597;52.218;9.882;2024-01-25T02:09:06;101497.59;;;7.40;87.37
43770;BME280;6597;52.218;9.882;2024-01-25T02:11:33;101503.78;;;7.34;87.03
43770;BME280;6597;52.218;9.882;2024-01-25T02:13:59;101502.84;;;7.40;86.54
43770;BME280;6597;52.218;9.882;2024-01-25T02:16:26;101507.19;;;7.41;86.65
43770;BME280;6597;52.218;9.882;2024-01-25T02:18:52;101505.41;;;7.43;86.61
43770;BME280;6597;52.218;9.882;2024-01-25T02:21:22;101496.69;;;7.44;86.51
43770;BME280;6597;52.218;9.882;2024-01-25T02:23:51;101508.06;;;7.40;86.63
43770;BME280;6597;52.218;9.882;2024-01-25T02:26:17;101494.09;;;7.42;86.22
43770;BME280;6597;52.218;9.882;2024-01-25T02:28:44;101495.88;;;7.40;86.85
43770;BME280;6597;52.218;9.882;2024-01-25T02:31:10;101494.16;;;7.38;86.63
43770;BME280;6597;52.218;9.882;2024-01-25T02:33:37;101496.78;;;7.36;87.26
43770;BME280;6597;52.218;9.882;2024-01-25T02:36:04;101501.09;;;7.39;86.38
43770;BME280;6597;52.218;9.882;2024-01-25T02:38:31;101504.59;;;7.38;86.41
43770;BME280;6597;52.218;9.882;2024-01-25T02:40:59;101508.09;;;7.35;87.13
43770;BME280;6597;52.218;9.882;2024-01-25T02:43:25;101508.97;;;7.36;86.60
43770;BME280;6597;52.218;9.882;2024-01-25T02:45:52;101514.19;;;7.36;86.62
43770;BME280;6597;52.218;9.882;2024-01-25T02:48:18;101532.47;;;7.37;87.04
43770;BME280;6597;52.218;9.882;2024-01-25T02:50:45;101533.34;;;7.36;86.69
43770;BME280;6597;52.218;9.882;2024-01-25T02:53:12;101535.94;;;7.38;87.51
43770;BME280;6597;52.218;9.882;2024-01-25T02:55:38;101532.47;;;7.37;86.91
43770;BME280;6597;52.218;9.882;2024-01-25T02:58:06;101516.81;;;7.36;87.38
43770;BME280;6597;52.218;9.882;2024-01-25T03:00:32;101529.91;;;7.33;87.36
43770;BME280;6597;52.218;9.882;2024-01-25T03:02:59;101525.53;;;7.33;87.65
43770;BME280;6597;52.218;9.882;2024-01-25T03:05:25;101526.41;;;7.34;87.26
43770;BME280;6597;52.218;9.882;2024-01-25T03:07:52;101526.44;;;7.29;87.45
43770;BME280;6597;52.218;9.882;2024-01-25T03:10:18;101531.66;;;7.31;87.85
43770;BME280;6597;52.218;9.882;2024-01-25T03:12:45;101532.53;;;7.30;87.76
43770;BME280;6597;52.218;9.882;2024-01-25T03:15:13;101534.28;;;7.31;88.16
43770;BME280;6597;52.218;9.882;2024-01-25T03:17:40;101531.69;;;7.28;87.77
43770;BME280;6597;52.218;9.882;2024-01-25T03:20:07;101531.72;;;7.26;87.57
43770;BME280;6597;52.218;9.882;2024-01-25T03:22:34;101526.50;;;7.25;87.83
43770;BME280;6597;52.218;9.882;2024-01-25T03:25:01;101513.47;;;7.22;88.16
43770;BME280;6597;52.218;9.882;2024-01-25T03:27:27;101514.38;;;7.17;88.16
43770;BME280;6597;52.218;9.882;2024-01-25T03:29:54;101510.94;;;7.15;88.24
43770;BME280;6597;52.218;9.882;2024-01-25T03:32:22;101504.84;;;7.10;88.56
43770;BME280;6597;52.218;9.882;2024-01-25T03:34:48;101510.09;;;7.07;88.77
43770;BME280;6597;52.218;9.882;2024-01-25T03:37:15;101517.94;;;7.07;89.04
43770;BME280;6597;52.218;9.882;2024-01-25T03:39:41;101531.06;;;7.00;88.91
43770;BME280;6597;52.218;9.882;2024-01-25T03:42:08;101512.81;;;6.97;89.42
43770;BME280;6597;52.218;9.882;2024-01-25T03:44:34;101512.88;;;6.91;89.48
43770;BME280;6597;52.218;9.882;2024-01-25T03:47:01;101518.13;;;6.86;89.36
43770;BME280;6597;52.218;9.882;2024-01-25T03:49:29;101515.53;;;6.80;89.82
43770;BME280;6597;52.218;9.882;2024-01-25T03:51:55;101530.34;;;6.76;90.42
43770;BME280;6597;52.218;9.882;2024-01-25T03:54:22;101531.25;;;6.71;90.62
43770;BME280;6597;52.218;9.882;2024-01-25T03:56:48;101535.66;;;6.64;91.11
43770;BME280;6597;52.218;9.882;2024-01-25T03:59:15;101548.72;;;6.63;91.72
43770;BME280;6597;52.218;9.882;2024-01-25T04:01:42;101536.59;;;6.57;91.88
43770;BME280;6597;52.218;9.882;2024-01-25T04:04:09;101540.06;;;6.56;92.13
43770;BME280;6597;52.218;9.882;2024-01-25T04:06:41;101541.84;;;6.52;92.56
43770;BME280;6597;52.218;9.882;2024-01-25T04:09:07;101562.69;;;6.48;93.25
43770;BME280;6597;52.218;9.882;2024-01-25T04:11:34;101554.91;;;6.45;93.40
43770;BME280;6597;52.218;9.882;2024-01-25T04:14:00;101562.72;;;6.46;93.58
43770;BME280;6597;52.218;9.882;2024-01-25T04:16:27;101576.63;;;6.51;93.36
43770;BME280;6597;52.218;9.882;2024-01-25T04:18:53;101571.38;;;6.54;93.19
43770;BME280;6597;52.218;9.882;2024-01-25T04:21:20;101573.97;;;6.61;93.16
43770;BME280;6597;52.218;9.882;2024-01-25T04:23:48;101569.59;;;6.63;92.94
43770;BME280;6597;52.218;9.882;2024-01-25T04:26:14;101576.56;;;6.62;93.06
43770;BME280;6597;52.218;9.882;2024-01-25T04:28:41;101579.16;;;6.64;93.06
43770;BME280;6597;52.218;9.882;2024-01-25T04:31:08;101588.69;;;6.66;93.03
43770;BME280;6597;52.218;9.882;2024-01-25T04:33:35;101604.38;;;6.65;92.99
43770;BME280;6597;52.218;9.882;2024-01-25T04:36:02;101606.09;;;6.64;93.13
43770;BME280;6597;52.218;9.882;2024-01-25T04:38:28;101606.13;;;6.63;93.69
43770;BME280;6597;52.218;9.882;2024-01-25T04:40:56;101609.59;;;6.65;93.84
43770;BME280;6597;52.218;9.882;2024-01-25T04:43:23;101616.53;;;6.66;93.27
43770;BME280;6597;52.218;9.882;2024-01-25T04:45:49;101602.63;;;6.64;93.57
43770;BME280;6597;52.218;9.882;2024-01-25T04:48:16;101598.28;;;6.63;93.90
43770;BME280;6597;52.218;9.882;2024-01-25T04:50:43;101598.28;;;6.61;94.18
43770;BME280;6597;52.218;9.882;2024-01-25T04:53:09;101601.75;;;6.63;94.10
43770;BME280;6597;52.218;9.882;2024-01-25T04:55:36;101605.25;;;6.62;94.31
43770;BME280;6597;52.218;9.882;2024-01-25T04:58:04;101613.94;;;6.61;94.31
43770;BME280;6597;52.218;9.882;2024-01-25T05:00:30;101625.25;;;6.60;94.92
43770;BME280;6597;52.218;9.882;2024-01-25T05:02:57;101625.28;;;6.59;94.84
43770;BME280;6597;52.218;9.882;2024-01-25T05:05:23;101640.06;;;6.57;94.63
43770;BME280;6597;52.218;9.882;2024-01-25T05:07:50;101651.34;;;6.59;94.24
43770;BME280;6597;52.218;9.882;2024-01-25T05:10:16;101648.78;;;6.54;94.30
43770;BME280;6597;52.218;9.882;2024-01-25T05:12:43;101657.47;;;6.54;94.74
43770;BME280;6597;52.218;9.882;2024-01-25T05:15:11;101667.03;;;6.54;94.82
43770;BME280;6597;52.218;9.882;2024-01-25T05:17:38;101678.34;;;6.51;95.06
43770;BME280;6597;52.218;9.882;2024-01-25T05:20:06;101679.22;;;6.50;95.17
43770;BME280;6597;52.218;9.882;2024-01-25T05:22:32;101674.00;;;6.53;94.79
43770;BME280;6597;52.218;9.882;2024-01-25T05:25:05;101684.44;;;6.53;95.00
43770;BME280;6597;52.218;9.882;2024-01-25T05:27:33;101678.34;;;6.53;95.09
43770;BME280;6597;52.218;9.882;2024-01-25T05:30:00;101681.81;;;6.53;95.17
43770;BME280;6597;52.218;9.882;2024-01-25T05:32:27;101690.50;;;6.49;95.18
43770;BME280;6597;52.218;9.882;2024-01-25T05:34:54;101687.91;;;6.46;95.17
43770;BME280;6597;52.218;9.882;2024-01-25T05:37:21;101691.38;;;6.45;95.35
43770;BME280;6597;52.218;9.882;2024-01-25T05:39:48;101689.63;;;6.49;95.67
43770;BME280;6597;52.218;9.882;2024-01-25T05:42:14;101694.84;;;6.46;95.27
43770;BME280;6597;52.218;9.882;2024-01-25T05:44:41;101696.59;;;6.44;95.35
43770;BME280;6597;52.218;9.882;2024-01-25T05:47:07;101687.91;;;6.43;95.30
43770;BME280;6597;52.218;9.882;2024-01-25T05:49:35;101695.75;;;6.39;95.50
43770;BME280;6597;52.218;9.882;2024-01-25T05:52:02;101693.16;;;6.36;95.70
43770;BME280;6597;52.218;9.882;2024-01-25T05:54:29;101688.81;;;6.38;95.79
43770;BME280;6597;52.218;9.882;2024-01-25T05:56:55;101694.91;;;6.35;95.96
43770;BME280;6597;52.218;9.882;2024-01-25T05:59:22;101692.28;;;6.38;95.68
43770;BME280;6597;52.218;9.882;2024-01-25T06:01:48;101682.78;;;6.25;95.71
43770;BME280;6597;52.218;9.882;2024-01-25T06:04:15;101701.88;;;6.33;95.89
43770;BME280;6597;52.218;9.882;2024-01-25T06:06:43;101696.66;;;6.33;96.00
43770;BME280;6597;52.218;9.882;2024-01-25T06:09:09;101703.59;;;6.31;95.85
43770;BME280;6597;52.218;9.882;2024-01-25T06:11:36;101702.75;;;6.28;95.89
43770;BME280;6597;52.218;9.882;2024-01-25T06:14:04;101692.31;;;6.26;95.75
43770;BME280;6597;52.218;9.882;2024-01-25T06:16:31;101714.06;;;6.22;96.04
43770;BME280;6597;52.218;9.882;2024-01-25T06:18:58;101701.03;;;6.19;95.71
43770;BME280;6597;52.218;9.882;2024-01-25T06:21:25;101706.25;;;6.11;96.14
43770;BME280;6597;52.218;9.882;2024-01-25T06:23:53;101705.38;;;6.11;96.32
43770;BME280;6597;52.218;9.882;2024-01-25T06:26:19;101694.97;;;6.08;96.62
43770;BME280;6597;52.218;9.882;2024-01-25T06:28:46;101708.00;;;6.05;96.74
43770;BME280;6597;52.218;9.882;2024-01-25T06:31:13;101708.88;;;6.04;97.06
43770;BME280;6597;52.218;9.882;2024-01-25T06:33:39;101724.50;;;6.01;97.26
43770;BME280;6597;52.218;9.882;2024-01-25T06:36:07;101714.09;;;5.98;97.18
43770;BME280;6597;52.218;9.882;2024-01-25T06:38:34;101714.97;;;6.00;97.07
43770;BME280;6597;52.218;9.882;2024-01-25T06:41:02;101724.50;;;6.01;96.91
43770;BME280;6597;52.218;9.882;2024-01-25T06:43:29;101727.13;;;5.99;97.04
43770;BME280;6597;52.218;9.882;2024-01-25T06:45:55;101734.06;;;5.96;97.13
43770;BME280;6597;52.218;9.882;2024-01-25T06:48:22;101733.22;;;5.93;97.83
43770;BME280;6597;52.218;9.882;2024-01-25T06:50:48;101747.97;;;5.93;97.65
43770;BME280;6597;52.218;9.882;2024-01-25T06:53:15;101747.97;;;5.95;97.55
43770;BME280;6597;52.218;9.882;2024-01-25T06:55:42;101750.59;;;5.95;97.82
43770;BME280;6597;52.218;9.882;2024-01-25T06:58:10;101761.00;;;5.93;98.05
43770;BME280;6597;52.218;9.882;2024-01-25T07:00:37;101761.88;;;5.93;97.84
43770;BME280;6597;52.218;9.882;2024-01-25T07:03:04;101760.16;;;5.91;98.25
43770;BME280;6597;52.218;9.882;2024-01-25T07:05:31;101769.66;;;5.89;98.43
43770;BME280;6597;52.218;9.882;2024-01-25T07:07:59;101772.28;;;5.87;98.95
43770;BME280;6597;52.218;9.882;2024-01-25T07:10:25;101774.00;;;5.85;99.20
43770;BME280;6597;52.218;9.882;2024-01-25T07:12:52;101776.59;;;5.84;99.17
43770;BME280;6597;52.218;9.882;2024-01-25T07:15:20;101786.13;;;5.83;99.32
43770;BME280;6597;52.218;9.882;2024-01-25T07:17:47;101774.84;;;5.84;99.80
43770;BME280;6597;52.218;9.882;2024-01-25T07:20:13;101785.28;;;5.83;99.84
43770;BME280;6597;52.218;9.882;2024-01-25T07:22:40;101784.44;;;5.85;99.87
43770;BME280;6597;52.218;9.882;2024-01-25T07:25:07;101780.94;;;5.85;99.81
43770;BME280;6597;52.218;9.882;2024-01-25T07:27:34;101791.34;;;5.85;99.85
43770;BME280;6597;52.218;9.882;2024-01-25T07:30:00;101779.22;;;5.85;100.00
43770;BME280;6597;52.218;9.882;2024-01-25T07:32:28;101787.91;;;5.86;100.00
43770;BME280;6597;52.218;9.882;2024-01-25T07:34:55;101793.16;;;5.90;100.00
43770;BME280;6597;52.218;9.882;2024-01-25T07:37:21;101793.13;;;5.89;99.65
43770;BME280;6597;52.218;9.882;2024-01-25T07:39:48;101799.22;;;5.89;100.00
43770;BME280;6597;52.218;9.882;2024-01-25T07:42:14;101791.41;;;5.92;100.00
43770;BME280;6597;52.218;9.882;2024-01-25T07:44:41;101800.97;;;5.95;100.00
43770;BME280;6597;52.218;9.882;2024-01-25T07:47:07;101788.81;;;5.97;99.84
43770;BME280;6597;52.218;9.882;2024-01-25T07:49:35;101798.38;;;5.98;100.00
43770;BME280;6597;52.218;9.882;2024-01-25T07:52:02;101799.22;;;5.99;99.68
43770;BME280;6597;52.218;9.882;2024-01-25T07:54:29;101802.69;;;5.99;100.00
43770;BME280;6597;52.218;9.882;2024-01-25T07:56:55;101803.56;;;6.03;100.00
43770;BME280;6597;52.218;9.882;2024-01-25T07:59:22;101805.31;;;6.02;99.66
43770;BME280;6597;52.218;9.882;2024-01-25T08:01:48;101813.13;;;6.07;99.50
43770;BME280;6597;52.218;9.882;2024-01-25T08:04:15;101815.72;;;6.13;99.68
43770;BME280;6597;52.218;9.882;2024-01-25T08:06:43;101824.41;;;6.13;99.51
43770;BME280;6597;52.218;9.882;2024-01-25T08:09:09;101826.16;;;6.14;99.61
43770;BME280;6597;52.218;9.882;2024-01-25T08:11:36;101815.72;;;6.16;99.53
43770;BME280;6597;52.218;9.882;2024-01-25T08:14:03;101822.69;;;6.17;99.60
43770;BME280;6597;52.218;9.882;2024-01-25T08:16:30;101822.72;;;6.20;99.56
43770;BME280;6597;52.218;9.882;2024-01-25T08:18:57;101820.97;;;6.23;99.68
43770;BME280;6597;52.218;9.882;2024-01-25T08:21:24;101811.41;;;6.24;98.90
43770;BME280;6597;52.218;9.882;2024-01-25T08:23:52;101811.41;;;6.27;98.73
43770;BME280;6597;52.218;9.882;2024-01-25T08:26:19;101816.59;;;6.33;98.55
43770;BME280;6597;52.218;9.882;2024-01-25T08:28:46;101816.59;;;6.36;97.84
43770;BME280;6597;52.218;9.882;2024-01-25T08:31:12;101826.16;;;6.34;97.83
43770;BME280;6597;52.218;9.882;2024-01-25T08:33:39;101829.66;;;6.32;97.67
43770;BME280;6597;52.218;9.882;2024-01-25T08:36:09;101831.38;;;6.34;97.78
43770;BME280;6597;52.218;9.882;2024-01-25T08:38:36;101839.19;;;6.37;97.71
43770;BME280;6597;52.218;9.882;2024-01-25T08:41:04;101842.69;;;6.39;97.71
43770;BME280;6597;52.218;9.882;2024-01-25T08:43:31;101844.41;;;6.40;97.54
43770;BME280;6597;52.218;9.882;2024-01-25T08:45:58;101848.75;;;6.44;97.25
43770;BME280;6597;52.218;9.882;2024-01-25T08:48:24;101850.50;;;6.44;97.14
43770;BME280;6597;52.218;9.882;2024-01-25T08:50:51;101860.03;;;6.49;97.09
43770;BME280;6597;52.218;9.882;2024-01-25T08:53:19;101853.13;;;6.51;96.86
43770;BME280;6597;52.218;9.882;2024-01-25T08:55:48;101851.34;;;6.47;96.25
43770;BME280;6597;52.218;9.882;2024-01-25T08:58:15;101857.47;;;6.52;96.66
43770;BME280;6597;52.218;9.882;2024-01-25T09:00:42;101854.84;;;6.55;96.50
43770;BME280;6597;52.218;9.882;2024-01-25T09:03:09;101860.06;;;6.59;96.53
43770;BME280;6597;52.218;9.882;2024-01-25T09:05:35;101867.03;;;6.55;96.55
43770;BME280;6597;52.218;9.882;2024-01-25T09:08:07;101874.84;;;6.55;96.81
43770;BME280;6597;52.218;9.882;2024-01-25T09:10:34;101880.94;;;6.55;96.98
43770;BME280;6597;52.218;9.882;2024-01-25T09:13:00;101880.06;;;6.58;96.78
43770;BME280;6597;52.218;9.882;2024-01-25T09:15:28;101889.63;;;6.61;96.63
43770;BME280;6597;52.218;9.882;2024-01-25T09:17:54;101898.31;;;6.61;97.12
43770;BME280;6597;52.218;9.882;2024-01-25T09:20:20;101891.34;;;6.71;96.22
43770;BME280;6597;52.218;9.882;2024-01-25T09:22:47;101886.13;;;6.69;95.46
43770;BME280;6597;52.218;9.882;2024-01-25T09:25:13;101889.59;;;6.70;96.35
43770;BME280;6597;52.218;9.882;2024-01-25T09:27:40;101893.09;;;6.72;96.18
43770;BME280;6597;52.218;9.882;2024-01-25T09:30:07;101887.88;;;6.69;95.96
43770;BME280;6597;52.218;9.882;2024-01-25T09:32:35;101883.53;;;6.69;95.53
43770;BME280;6597;52.218;9.882;2024-01-25T09:35:02;101888.75;;;6.69;95.66
43770;BME280;6597;52.218;9.882;2024-01-25T09:37:28;101892.22;;;6.73;95.70
43770;BME280;6597;52.218;9.882;2024-01-25T09:39:55;101903.50;;;6.79;95.87
43770;BME280;6597;52.218;9.882;2024-01-25T09:42:24;101897.41;;;6.93;95.33
43770;BME280;6597;52.218;9.882;2024-01-25T09:44:52;101905.25;;;6.97;94.06
43770;BME280;6597;52.218;9.882;2024-01-25T09:47:20;101901.72;;;7.10;93.28
43770;BME280;6597;52.218;9.882;2024-01-25T09:49:48;101895.63;;;7.16;92.33
43770;BME280;6597;52.218;9.882;2024-01-25T09:52:16;101900.78;;;7.31;91.22
43770;BME280;6597;52.218;9.882;2024-01-25T09:54:43;101913.75;;;7.60;90.09
43770;BME280;6597;52.218;9.882;2024-01-25T09:57:14;101910.13;;;7.89;88.00
43770;BME280;6597;52.218;9.882;2024-01-25T09:59:42;101921.47;;;7.88;86.67
43770;BME280;6597;52.218;9.882;2024-01-25T10:02:09;101918.75;;;8.04;85.96
43770;BME280;6597;52.218;9.882;2024-01-25T10:04:37;101916.00;;;8.24;85.24
43770;BME280;6597;52.218;9.882;2024-01-25T10:07:05;101923.81;;;8.27;84.45
43770;BME280;6597;52.218;9.882;2024-01-25T10:09:38;101914.03;;;8.57;82.58
43770;BME280;6597;52.218;9.882;2024-01-25T10:12:05;101921.09;;;8.49;82.13
43770;BME280;6597;52.218;9.882;2024-01-25T10:14:31;101914.13;;;8.49;82.73
43770;BME280;6597;52.218;9.882;2024-01-25T10:16:57;101917.59;;;8.50;82.06
43770;BME280;6597;52.218;9.882;2024-01-25T10:19:25;101930.69;;;8.45;82.53
43770;BME280;6597;52.218;9.882;2024-01-25T10:21:51;101926.13;;;8.70;81.12
43770;BME280;6597;52.218;9.882;2024-01-25T10:24:19;101921.66;;;8.84;81.21
43770;BME280;6597;52.218;9.882;2024-01-25T10:26:48;101926.63;;;9.10;80.35
43770;BME280;6597;52.218;9.882;2024-01-25T10:29:15;101923.34;;;8.91;79.19
43770;BME280;6597;52.218;9.882;2024-01-25T10:31:42;101926.03;;;8.82;80.00
43770;BME280;6597;52.218;9.882;2024-01-25T10:34:12;101920.88;;;8.71;79.83
43770;BME280;6597;52.218;9.882;2024-01-25T10:36:40;101927.09;;;8.60;79.69
43770;BME280;6597;52.218;9.882;2024-01-25T10:39:08;101914.75;;;8.72;80.76
43770;BME280;6597;52.218;9.882;2024-01-25T10:41:37;101919.06;;;8.81;81.87
43770;BME280;6597;52.218;9.882;2024-01-25T10:44:04;101920.72;;;8.90;81.37
43770;BME280;6597;52.218;9.882;2024-01-25T10:46:32;101909.53;;;8.74;80.53
43770;BME280;6597;52.218;9.882;2024-01-25T10:48:58;101910.53;;;8.58;81.44
43770;BME280;6597;52.218;9.882;2024-01-25T10:51:26;101909.75;;;8.45;82.15
43770;BME280;6597;52.218;9.882;2024-01-25T10:53:53;101914.19;;;8.35;82.03
43770;BME280;6597;52.218;9.882;2024-01-25T10:56:20;101919.50;;;8.23;84.15
43770;BME280;6597;52.218;9.882;2024-01-25T10:58:48;101924.69;;;8.29;83.92
43770;BME280;6597;52.218;9.882;2024-01-25T11:01:16;101930.75;;;8.39;83.62
43770;BME280;6597;52.218;9.882;2024-01-25T11:03:45;101927.28;;;8.35;83.60
43770;BME280;6597;52.218;9.882;2024-01-25T11:06:13;101927.41;;;8.17;84.00
43770;BME280;6597;52.218;9.882;2024-01-25T11:08:40;101925.69;;;8.08;84.25
43770;BME280;6597;52.218;9.882;2024-01-25T11:11:08;101918.69;;;8.09;84.92
43770;BME280;6597;52.218;9.882;2024-01-25T11:13:38;101923.84;;;8.26;84.77
43770;BME280;6597;52.218;9.882;2024-01-25T11:16:14;101918.38;;;8.59;83.51
43770;BME280;6597;52.218;9.882;2024-01-25T11:18:48;101912.13;;;8.76;81.97
43770;BME280;6597;52.218;9.882;2024-01-25T11:21:25;101914.56;;;8.95;81.21
43770;BME280;6597;52.218;9.882;2024-01-25T11:23:59;101907.53;;;9.00;81.02
43770;BME280;6597;52.218;9.882;2024-01-25T11:26:26;101912.72;;;9.03;79.36
43770;BME280;6597;52.218;9.882;2024-01-25T11:28:53;101908.31;;;9.09;79.57
43770;BME280;6597;52.218;9.882;2024-01-25T11:31:21;101911.00;;;9.01;78.90
43770;BME280;6597;52.218;9.882;2024-01-25T11:33:49;101907.59;;;8.94;79.18
43770;BME280;6597;52.218;9.882;2024-01-25T11:36:20;101911.72;;;9.18;79.75
43770;BME280;6597;52.218;9.882;2024-01-25T11:38:46;101907.94;;;9.42;79.38
43770;BME280;6597;52.218;9.882;2024-01-25T11:41:13;101910.25;;;9.66;77.52
43770;BME280;6597;52.218;9.882;2024-01-25T11:43:40;101917.50;;;9.46;76.93
43770;BME280;6597;52.218;9.882;2024-01-25T11:46:07;101910.00;;;9.16;77.43
43770;BME280;6597;52.218;9.882;2024-01-25T11:48:38;101915.25;;;9.16;78.66
43770;BME280;6597;52.218;9.882;2024-01-25T11:51:05;101918.00;;;8.99;79.91
43770;BME280;6597;52.218;9.882;2024-01-25T11:53:31;101922.53;;;8.83;80.47
43770;BME280;6597;52.218;9.882;2024-01-25T11:55:58;101920.09;;;8.62;83.07
43770;BME280;6597;52.218;9.882;2024-01-25T11:58:25;101915.88;;;8.42;83.17
43770;BME280;6597;52.218;9.882;2024-01-25T12:00:52;101913.34;;;8.33;83.57
43770;BME280;6597;52.218;9.882;2024-01-25T12:03:19;101917.69;;;8.31;85.15
43770;BME280;6597;52.218;9.882;2024-01-25T12:05:47;101915.06;;;8.37;85.09
43770;BME280;6597;52.218;9.882;2024-01-25T12:08:14;101909.78;;;8.43;83.44
43770;BME280;6597;52.218;9.882;2024-01-25T12:10:40;101919.22;;;8.63;83.51
43770;BME280;6597;52.218;9.882;2024-01-25T12:13:07;101913.13;;;8.61;81.70
43770;BME280;6597;52.218;9.882;2024-01-25T12:15:34;101909.75;;;8.50;81.75
43770;BME280;6597;52.218;9.882;2024-01-25T12:18:01;101903.69;;;8.41;82.05
43770;BME280;6597;52.218;9.882;2024-01-25T12:20:28;101897.59;;;8.39;82.48
43770;BME280;6597;52.218;9.882;2024-01-25T12:22:58;101886.28;;;8.37;82.88
43770;BME280;6597;52.218;9.882;2024-01-25T12:25:24;101883.69;;;8.34;82.35
43770;BME280;6597;52.218;9.882;2024-01-25T12:27:53;101883.69;;;8.36;83.19
43770;BME280;6597;52.218;9.882;2024-01-25T12:30:19;101881.81;;;8.53;82.69
43770;BME280;6597;52.218;9.882;2024-01-25T12:32:48;101888.75;;;8.56;81.45
43770;BME280;6597;52.218;9.882;2024-01-25T12:35:14;101887.84;;;8.58;80.71
43770;BME280;6597;52.218;9.882;2024-01-25T12:37:41;101889.47;;;8.73;80.29
43770;BME280;6597;52.218;9.882;2024-01-25T12:40:09;101880.69;;;8.80;80.34
43770;BME280;6597;52.218;9.882;2024-01-25T12:42:36;101868.34;;;8.91;80.71
43770;BME280;6597;52.218;9.882;2024-01-25T12:45:03;101870.13;;;8.89;79.92
43770;BME280;6597;52.218;9.882;2024-01-25T12:47:30;101884.97;;;8.87;80.22
43770;BME280;6597;52.218;9.882;2024-01-25T12:49:56;101891.16;;;8.77;79.05
43770;BME280;6597;52.218;9.882;2024-01-25T12:52:23;101883.31;;;8.77;79.41
43770;BME280;6597;52.218;9.882;2024-01-25T12:54:49;101898.16;;;8.78;79.63
43770;BME280;6597;52.218;9.882;2024-01-25T12:57:17;101894.50;;;8.93;79.95
43770;BME280;6597;52.218;9.882;2024-01-25T12:59:44;101886.75;;;8.85;79.40
43770;BME280;6597;52.218;9.882;2024-01-25T13:02:12;101894.72;;;8.70;77.79
43770;BME280;6597;52.218;9.882;2024-01-25T13:04:39;101893.97;;;8.57;78.65
43770;BME280;6597;52.218;9.882;2024-01-25T13:07:05;101894.13;;;8.37;78.90
43770;BME280;6597;52.218;9.882;2024-01-25T13:09:33;101906.41;;;8.23;80.00